Terminal Aerodrome Forecast
Issued by NWS

Home | Current Version | Previous Version | Text Only | Print | Product List | Glossary On
Versions: 1 2 3 4 5 6 7 8 9 10 11 12 13 14 15 16 17 18 19 20 21 22 23 24 25 26 27
000
FTUS41 KBUF 020857 AAA
TAFJHW
TAF AMD
KJHW 020857Z 0209/0306 23008KT P6SM FEW250
     FM021500 25012KT P6SM FEW250
     FM021800 24012G18KT P6SM SCT130
     FM022200 22012KT P6SM SCT250
     FM030300 20012G20KT P6SM SCT100 BKN250
      AMD LTD TO CLD VIS AND WIND=

USA.gov is the U.S. government's official web portal to all federal, state and local government web resources and services.